createdAt,value
2018-09-04T00:06:43.198Z,0.0
2018-09-04T00:16:57.939Z,0.0
2018-09-04T00:27:43.344Z,0.0
2018-09-04T00:37:57.488Z,0.0
2018-09-04T00:48:11.772Z,0.0
2018-09-04T00:58:25.820Z,0.0
2018-09-04T01:09:11.579Z,0.0
2018-09-04T01:19:25.917Z,0.0
2018-09-04T01:29:40.289Z,0.0
2018-09-04T01:39:54.420Z,0.0
2018-09-04T01:50:08.631Z,0.0
2018-09-04T02:00:53.319Z,0.0
2018-09-04T02:11:07.558Z,0.0
2018-09-04T02:21:52.192Z,0.0
2018-09-04T02:32:37.031Z,0.0
2018-09-04T02:42:51.483Z,0.0
2018-09-04T02:53:05.547Z,0.0
2018-09-04T03:03:19.859Z,0.0
2018-09-04T03:13:34.230Z,0.0
2018-09-04T03:24:18.745Z,0.0
2018-09-04T03:34:32.763Z,0.0
2018-09-04T03:44:47.139Z,0.0
2018-09-04T03:55:01.256Z,0.0
2018-09-04T04:05:15.478Z,0.0
2018-09-04T04:16:01.015Z,0.0
2018-09-04T04:26:15.447Z,0.0
2018-09-04T04:37:01.145Z,0.0
2018-09-04T04:47:15.631Z,5.0
2018-09-04T04:57:27.880Z,10.0
2018-09-04T05:07:41.801Z,30.0
2018-09-04T05:18:27.447Z,40.0
2018-09-04T05:28:41.939Z,50.0
2018-09-04T05:38:56.621Z,55.0
2018-09-04T05:49:10.837Z,55.0
2018-09-04T05:59:25.334Z,65.0
2018-09-04T06:09:39.535Z,70.0
2018-09-04T06:19:53.691Z,75.0
2018-09-04T06:30:38.429Z,65.0
2018-09-04T06:40:52.445Z,80.0
2018-09-04T06:51:03.844Z,85.0
2018-09-04T07:01:18.015Z,100.0
2018-09-04T07:11:29.665Z,120.0
2018-09-04T07:21:41.785Z,170.0
2018-09-04T07:31:53.181Z,145.0
2018-09-04T07:42:08.645Z,150.0
2018-09-04T07:52:53.460Z,145.0
2018-09-04T08:03:07.405Z,220.0
2018-09-04T08:14:22.447Z,435.0
2018-09-04T08:25:08.194Z,470.0
2018-09-04T08:35:20.451Z,420.0
2018-09-04T08:46:05.025Z,585.0
2018-09-04T08:56:49.766Z,985.0
2018-09-04T09:07:34.541Z,1230.0
2018-09-04T09:18:19.107Z,1595.0
2018-09-04T09:28:33.781Z,1690.0
2018-09-04T09:39:18.151Z,1700.0
2018-09-04T09:49:32.353Z,1845.0
2018-09-04T09:59:46.898Z,1805.0
2018-09-04T10:09:58.942Z,2145.0
2018-09-04T10:20:10.340Z,2080.0
2018-09-04T10:30:24.690Z,2090.0
2018-09-04T10:42:28.812Z,2080.0
2018-09-04T10:52:42.459Z,2100.0
2018-09-04T11:02:57.050Z,2165.0
2018-09-04T11:13:10.869Z,2235.0
2018-09-04T11:23:21.991Z,1960.0
2018-09-04T11:33:35.311Z,2185.0
2018-09-04T11:43:50.977Z,2050.0
2018-09-04T11:54:04.756Z,2045.0
2018-09-04T12:04:18.259Z,2005.0
2018-09-04T12:14:29.864Z,1795.0
2018-09-04T12:25:00.294Z,710.0
2018-09-04T12:35:12.119Z,1895.0
2018-09-04T12:45:26.289Z,605.0
2018-09-04T12:55:46.071Z,1575.0
2018-09-04T13:06:00.082Z,2140.0
2018-09-04T13:16:14.900Z,2000.0
2018-09-04T13:26:29.032Z,1850.0
2018-09-04T13:36:42.746Z,1790.0
2018-09-04T13:48:06.958Z,1805.0
2018-09-04T14:08:37.697Z,1730.0
2018-09-04T14:18:51.901Z,1645.0
2018-09-04T14:29:10.299Z,1450.0
2018-09-04T14:50:01.598Z,1180.0
2018-09-04T15:00:16.180Z,1100.0
2018-09-04T15:10:53.251Z,855.0
2018-09-04T15:21:07.344Z,515.0
2018-09-04T15:31:21.795Z,405.0
2018-09-04T15:41:35.782Z,275.0
2018-09-04T15:51:49.962Z,190.0
2018-09-04T16:02:29.028Z,185.0
2018-09-04T16:13:15.785Z,160.0
2018-09-04T16:23:29.086Z,125.0
2018-09-04T16:34:06.382Z,105.0
2018-09-04T16:44:17.696Z,100.0
2018-09-04T16:54:32.624Z,100.0
2018-09-04T17:06:06.151Z,95.0
2018-09-04T17:16:20.130Z,75.0
2018-09-04T17:26:34.460Z,60.0
2018-09-04T17:48:55.751Z,30.0
2018-09-04T17:59:09.955Z,15.0
2018-09-04T18:09:23.948Z,5.0
2018-09-04T18:20:09.750Z,0.0
2018-09-04T18:41:35.814Z,0.0
2018-09-04T18:51:51.243Z,0.0
2018-09-04T19:02:02.932Z,0.0
2018-09-04T19:12:19.330Z,0.0
2018-09-04T19:23:14.055Z,0.0
2018-09-04T19:33:28.690Z,0.0
2018-09-04T19:43:40.167Z,0.0
2018-09-04T19:53:54.300Z,0.0
2018-09-04T20:04:39.000Z,0.0
2018-09-04T20:15:22.925Z,0.0
2018-09-04T20:26:07.590Z,0.0
2018-09-04T20:36:53.290Z,0.0
2018-09-04T20:47:06.829Z,0.0
2018-09-04T20:57:20.885Z,0.0
2018-09-04T21:07:35.519Z,0.0
2018-09-04T21:17:49.611Z,0.0
2018-09-04T21:28:03.690Z,0.0
2018-09-04T21:38:18.040Z,0.0
2018-09-04T21:49:02.530Z,0.0
2018-09-04T21:59:18.442Z,0.0
2018-09-04T22:09:31.739Z,0.0
2018-09-04T22:19:45.062Z,0.0
2018-09-04T22:29:56.562Z,0.0
2018-09-04T22:40:40.982Z,0.0
2018-09-04T22:50:54.406Z,0.0
2018-09-04T23:01:08.406Z,0.0
2018-09-04T23:11:22.067Z,0.0
2018-09-04T23:21:35.944Z,0.0
2018-09-04T23:31:49.951Z,0.0
2018-09-04T23:42:03.472Z,0.0
2018-09-04T23:52:17.913Z,0.0
